aviador You're here:

YPEA Decoded Metar

PEARCE (AUS-AFB) in AUSTRALIA
Report Time2017-11-22 05:00:00
UTC Time2017-11-22 05:10:09
Flight Rules vfr VFR
Wind090° at 09 kt
W.Decomp.*RWY 05: 6.8 kt HW 5.9 kt RCW
RWY 18: 0.2 kt HW 9 kt LCW
W.Rank090° ranks 1
Current wind is below 090° avg. (10.2)
Visibility9999 m
Phenomena:N/A
Clouds:N/A
Expected CloudBase > 11,200 ft AGL from Temp-Dew spread
CeilingNone
Temp27°C (ISA +12)
Dew Point-1°C (16% RH)
Heat Index26.0°C
AAT21.6°C
QNH1017 hPa
Density Alt1,532 ft
Elevation161 ft
Report Wrong Elevation
Raw Report
METAR YPEA 220500Z 09009KT 070V130 CAVOK 27/M01 Q1017
NOSIG=

Extra information for YPEA:More info

Metar Taf Metar & Taf Last 4 Metars F.Rules Stats Wind Profile Meteogram Temp Stats Airport Information Weather charts Add Link Nearby VenuesMetar ALERT Operation Metar Decoded Social comments